createdAt,value
2022-08-03T00:01:43.843Z,91.80
2022-08-03T00:04:11.593Z,91.90
2022-08-03T00:06:40.725Z,91.90
2022-08-03T00:09:07.792Z,91.90
2022-08-03T00:11:35.268Z,92.10
2022-08-03T00:14:05.033Z,92.20
2022-08-03T00:16:34.197Z,92.20
2022-08-03T00:19:02.072Z,92.40
2022-08-03T00:21:31.759Z,92.60
2022-08-03T00:23:58.568Z,92.60
2022-08-03T00:26:30.093Z,92.70
2022-08-03T00:28:56.756Z,92.80
2022-08-03T00:31:39.846Z,92.80
2022-08-03T00:34:12.571Z,92.80
2022-08-03T00:36:39.440Z,93.00
2022-08-03T00:39:06.228Z,93.10
2022-08-03T00:41:35.369Z,93.20
2022-08-03T00:44:04.202Z,93.20
2022-08-03T00:46:30.901Z,93.20
2022-08-03T00:48:57.753Z,93.20
2022-08-03T00:51:28.106Z,93.30
2022-08-03T00:53:57.259Z,93.30
2022-08-03T00:56:24.071Z,93.40
2022-08-03T00:58:54.653Z,93.50
2022-08-03T01:01:23.869Z,93.50
2022-08-03T01:03:53.092Z,93.70
2022-08-03T01:06:44.252Z,93.80
2022-08-03T01:09:25.851Z,94.00
2022-08-03T01:12:25.149Z,94.30
2022-08-03T01:14:57.354Z,94.30
2022-08-03T01:17:34.331Z,94.30
2022-08-03T01:20:06.954Z,94.40
2022-08-03T01:22:55.206Z,94.50
2022-08-03T01:25:42.909Z,94.70
2022-08-03T01:28:27.553Z,94.80
2022-08-03T01:30:59.010Z,95.00
2022-08-03T01:33:43.984Z,95.00
2022-08-03T01:36:17.685Z,95.00
2022-08-03T01:38:54.085Z,95.00
2022-08-03T01:41:24.662Z,95.10
2022-08-03T01:44:27.759Z,95.30
2022-08-03T01:46:47.852Z,95.40
2022-08-03T01:49:17.158Z,95.40
2022-08-03T01:51:56.685Z,95.40
2022-08-03T01:54:40.469Z,95.40
2022-08-03T01:57:08.721Z,95.50
2022-08-03T01:59:37.434Z,95.70
2022-08-03T02:02:28.863Z,95.70
2022-08-03T02:04:55.099Z,95.70
2022-08-03T02:07:22.714Z,95.80
2022-08-03T02:09:52.439Z,96.00
2022-08-03T02:12:20.674Z,96.00
2022-08-03T02:14:49.334Z,96.10
2022-08-03T02:17:18.793Z,96.20
2022-08-03T02:20:08.992Z,96.40
2022-08-03T02:22:39.214Z,96.60
2022-08-03T02:25:11.167Z,96.70
2022-08-03T02:27:45.001Z,96.90
2022-08-03T02:30:12.333Z,97.10
2022-08-03T02:32:42.507Z,97.30
2022-08-03T02:35:15.390Z,97.40
2022-08-03T02:37:49.781Z,97.40
2022-08-03T02:40:19.769Z,97.20
2022-08-03T02:42:49.310Z,97.00
2022-08-03T02:45:18.192Z,97.00
2022-08-03T02:47:53.840Z,97.10
2022-08-03T02:50:23.082Z,96.90
2022-08-03T02:52:51.151Z,96.90
2022-08-03T02:55:20.424Z,97.00
2022-08-03T02:57:48.213Z,96.80
2022-08-03T03:00:27.628Z,96.70
2022-08-03T03:03:00.444Z,96.50
2022-08-03T03:05:55.824Z,96.50
2022-08-03T03:08:17.987Z,96.40
2022-08-03T03:10:47.984Z,96.80
2022-08-03T03:13:19.363Z,96.90
2022-08-03T03:15:47.872Z,97.00
2022-08-03T03:18:21.722Z,97.00
2022-08-03T03:20:50.442Z,97.00
2022-08-03T03:23:17.937Z,96.90
2022-08-03T03:25:45.447Z,96.80
2022-08-03T03:28:15.305Z,96.70
2022-08-03T03:30:42.668Z,96.70
2022-08-03T03:33:09.465Z,96.70
2022-08-03T03:35:39.393Z,96.60
2022-08-03T03:38:09.109Z,96.70
2022-08-03T03:40:36.734Z,96.70
2022-08-03T03:43:07.261Z,96.70
2022-08-03T03:45:35.194Z,96.90
2022-08-03T03:48:04.560Z,97.00
2022-08-03T03:50:35.869Z,97.10
2022-08-03T03:53:03.714Z,97.10
2022-08-03T03:55:30.840Z,97.20
2022-08-03T03:57:57.497Z,97.30
2022-08-03T04:00:24.176Z,97.50
2022-08-03T04:02:50.875Z,97.50
2022-08-03T04:05:36.306Z,97.80
2022-08-03T04:08:36.168Z,97.80
2022-08-03T04:11:29.087Z,97.70
2022-08-03T04:14:07.985Z,97.80
2022-08-03T04:16:43.832Z,97.90
2022-08-03T04:19:17.474Z,98.00
2022-08-03T04:21:52.783Z,98.00
2022-08-03T04:24:20.862Z,98.10
2022-08-03T04:26:53.537Z,98.00
2022-08-03T04:29:24.376Z,98.00
2022-08-03T04:31:54.712Z,97.80
2022-08-03T04:34:23.743Z,97.90
2022-08-03T04:36:57.979Z,97.80
2022-08-03T04:39:27.368Z,97.70
2022-08-03T04:42:08.170Z,97.60
2022-08-03T04:44:41.717Z,97.40
2022-08-03T04:47:11.532Z,97.20
2022-08-03T04:49:38.772Z,97.30
2022-08-03T04:52:07.869Z,97.20
2022-08-03T04:54:50.028Z,97.30
2022-08-03T04:57:23.296Z,97.30
2022-08-03T05:00:02.656Z,97.20
2022-08-03T05:02:31.199Z,97.20
2022-08-03T05:04:58.508Z,97.20
2022-08-03T05:07:25.518Z,97.10
2022-08-03T05:10:01.710Z,97.00
2022-08-03T05:12:32.689Z,96.90
2022-08-03T05:15:02.444Z,96.90
2022-08-03T05:17:29.364Z,97.00
2022-08-03T05:19:56.659Z,97.00
2022-08-03T05:22:23.757Z,97.00
2022-08-03T05:24:52.625Z,96.70
2022-08-03T05:27:19.646Z,96.60
2022-08-03T05:29:47.661Z,96.60
2022-08-03T05:32:15.052Z,96.30
2022-08-03T05:34:42.057Z,96.10
2022-08-03T05:37:09.584Z,95.90
2022-08-03T05:39:36.560Z,95.70
2022-08-03T05:42:03.569Z,95.80
2022-08-03T05:44:31.640Z,95.70
2022-08-03T05:46:59.156Z,95.60
2022-08-03T05:49:25.968Z,95.30
2022-08-03T05:52:08.916Z,95.00
2022-08-03T05:54:56.710Z,94.90
2022-08-03T05:57:25.431Z,94.50
2022-08-03T05:59:53.857Z,94.30
2022-08-03T06:02:28.095Z,94.00
2022-08-03T06:04:54.833Z,93.70
2022-08-03T06:07:21.639Z,93.20
2022-08-03T06:10:34.993Z,92.70
2022-08-03T06:12:41.316Z,92.50
2022-08-03T06:15:11.610Z,92.70
2022-08-03T06:17:48.630Z,92.50
2022-08-03T06:20:19.872Z,92.40
2022-08-03T06:22:50.881Z,92.10
2022-08-03T06:25:19.357Z,91.80
2022-08-03T06:27:50.733Z,91.60
2022-08-03T06:30:21.225Z,91.60
2022-08-03T06:32:51.790Z,91.30
2022-08-03T06:35:19.361Z,91.20
2022-08-03T06:37:51.617Z,89.90
2022-08-03T06:40:21.715Z,88.10
2022-08-03T06:42:51.189Z,86.80
2022-08-03T06:45:18.157Z,86.00
2022-08-03T06:47:44.892Z,84.30
2022-08-03T06:50:16.812Z,84.10
2022-08-03T06:52:44.295Z,82.70
2022-08-03T06:55:13.328Z,81.40
2022-08-03T06:57:40.060Z,80.80
2022-08-03T07:00:12.155Z,79.80
2022-08-03T07:02:40.036Z,78.80
2022-08-03T07:05:07.793Z,78.70
2022-08-03T07:07:37.546Z,78.80
2022-08-03T07:10:06.288Z,78.60
2022-08-03T07:12:34.111Z,78.20
2022-08-03T07:15:05.676Z,78.20
2022-08-03T07:17:34.647Z,77.70
2022-08-03T07:20:06.673Z,77.10
2022-08-03T07:22:34.262Z,76.10
2022-08-03T07:25:03.911Z,75.80
2022-08-03T07:27:33.667Z,75.90
2022-08-03T07:30:00.585Z,75.80
2022-08-03T07:32:31.294Z,75.40
2022-08-03T07:35:00.918Z,75.10
2022-08-03T07:37:31.786Z,74.60
2022-08-03T07:40:01.820Z,74.00
2022-08-03T07:42:29.759Z,74.00
2022-08-03T07:44:57.538Z,73.60
2022-08-03T07:47:34.887Z,73.20
2022-08-03T07:50:03.816Z,73.60
2022-08-03T07:52:48.013Z,73.40
2022-08-03T07:55:17.905Z,73.20
2022-08-03T07:57:50.334Z,73.30
2022-08-03T08:00:19.137Z,73.60
2022-08-03T08:02:46.556Z,73.00
2022-08-03T08:05:13.554Z,72.80
2022-08-03T08:07:40.518Z,72.80
2022-08-03T08:10:10.032Z,73.30
2022-08-03T08:12:38.531Z,73.10
2022-08-03T08:15:06.665Z,72.70
2022-08-03T08:17:42.825Z,71.20
2022-08-03T08:20:11.353Z,71.10
2022-08-03T08:22:40.743Z,71.40
2022-08-03T08:25:08.479Z,70.10
2022-08-03T08:28:31.518Z,70.70
2022-08-03T08:30:33.865Z,70.70
2022-08-03T08:33:02.181Z,71.40
2022-08-03T08:35:29.226Z,71.50
2022-08-03T08:37:55.969Z,70.80
2022-08-03T08:40:27.494Z,69.30
2022-08-03T08:42:58.680Z,69.30
2022-08-03T08:45:26.446Z,68.80
2022-08-03T08:47:59.752Z,68.20
2022-08-03T08:50:29.726Z,68.80
2022-08-03T08:52:59.816Z,69.30
2022-08-03T08:55:29.531Z,68.50
2022-08-03T08:58:21.559Z,69.60
2022-08-03T09:00:48.584Z,68.30
2022-08-03T09:03:22.369Z,68.70
2022-08-03T09:05:57.914Z,67.20
2022-08-03T09:08:26.899Z,66.70
2022-08-03T09:10:56.070Z,66.70
2022-08-03T09:13:22.959Z,65.60
2022-08-03T09:16:08.640Z,66.00
2022-08-03T09:18:35.302Z,64.00
2022-08-03T09:21:37.275Z,63.90
2022-08-03T09:24:16.485Z,64.30
2022-08-03T09:26:51.946Z,63.40
2022-08-03T09:29:21.491Z,63.70
2022-08-03T09:31:48.479Z,63.30
2022-08-03T09:34:17.385Z,64.80
2022-08-03T09:36:54.095Z,62.90
2022-08-03T09:39:41.287Z,62.60
2022-08-03T09:42:17.510Z,62.60
2022-08-03T09:44:50.615Z,61.90
2022-08-03T09:47:33.570Z,60.30
2022-08-03T09:50:04.953Z,60.00
2022-08-03T09:52:52.254Z,59.80
2022-08-03T09:56:34.914Z,60.40
2022-08-03T09:58:10.570Z,59.30
2022-08-03T10:01:04.044Z,58.70
2022-08-03T10:04:03.263Z,58.30
2022-08-03T10:06:28.842Z,57.90
2022-08-03T10:09:07.579Z,57.60
2022-08-03T10:11:41.760Z,57.30
2022-08-03T10:14:11.659Z,57.80
2022-08-03T10:16:40.979Z,58.20
2022-08-03T10:19:09.772Z,57.90
2022-08-03T10:21:38.665Z,56.90
2022-08-03T10:24:07.582Z,56.20
2022-08-03T10:26:39.015Z,57.10
2022-08-03T10:29:25.178Z,57.90
2022-08-03T10:31:57.986Z,57.20
2022-08-03T10:34:29.038Z,57.40
2022-08-03T10:36:58.756Z,57.10
2022-08-03T10:39:29.295Z,57.60
2022-08-03T10:41:58.733Z,57.00
2022-08-03T10:44:32.612Z,55.90
2022-08-03T10:47:02.145Z,55.50
2022-08-03T10:49:34.830Z,55.60
2022-08-03T10:52:13.793Z,55.50
2022-08-03T10:55:12.906Z,56.70
2022-08-03T10:57:50.460Z,55.80
2022-08-03T11:00:26.461Z,56.00
2022-08-03T11:03:04.044Z,55.10
2022-08-03T11:05:35.183Z,53.70
2022-08-03T11:08:41.083Z,54.30
2022-08-03T11:11:19.472Z,54.70
2022-08-03T11:14:10.990Z,55.20
2022-08-03T11:16:49.741Z,55.30
2022-08-03T11:19:22.274Z,53.90
2022-08-03T11:21:49.286Z,54.40
2022-08-03T11:24:37.137Z,53.70
2022-08-03T11:27:16.971Z,54.30
2022-08-03T11:30:03.786Z,54.10
2022-08-03T11:32:48.486Z,54.80
2022-08-03T11:35:18.962Z,55.10
2022-08-03T11:38:04.381Z,54.60
2022-08-03T11:40:50.423Z,54.70
2022-08-03T11:43:26.739Z,54.80
2022-08-03T11:46:06.700Z,55.60
2022-08-03T11:48:45.153Z,55.40
2022-08-03T11:51:27.288Z,55.10
2022-08-03T11:53:58.847Z,54.80
2022-08-03T11:56:26.278Z,56.20
2022-08-03T11:59:01.554Z,55.10
2022-08-03T12:01:42.182Z,54.80
2022-08-03T12:04:10.393Z,54.10
2022-08-03T12:06:55.127Z,54.50
2022-08-03T12:09:22.339Z,54.50
2022-08-03T12:11:58.424Z,54.50
2022-08-03T12:14:50.242Z,53.90
2022-08-03T12:17:17.787Z,53.60
2022-08-03T12:19:45.321Z,52.90
2022-08-03T12:22:16.756Z,52.00
2022-08-03T12:24:47.871Z,52.40
2022-08-03T12:27:29.322Z,52.40
2022-08-03T12:29:59.941Z,52.70
2022-08-03T12:32:29.122Z,52.80
2022-08-03T12:35:05.939Z,52.90
2022-08-03T12:37:32.961Z,52.60
2022-08-03T12:40:07.709Z,52.40
2022-08-03T12:42:39.783Z,52.40
2022-08-03T12:45:44.720Z,52.30
2022-08-03T12:48:12.023Z,52.50
2022-08-03T12:50:39.937Z,52.20
2022-08-03T12:53:09.166Z,52.00
2022-08-03T12:56:04.286Z,52.20
2022-08-03T12:58:35.487Z,52.40
2022-08-03T13:01:09.699Z,52.90
2022-08-03T13:03:43.448Z,51.90
2022-08-03T13:06:24.244Z,51.30
2022-08-03T13:09:04.935Z,51.00
2022-08-03T13:11:55.915Z,51.10
2022-08-03T13:14:20.744Z,51.70
2022-08-03T13:16:49.038Z,51.20
2022-08-03T13:19:16.181Z,51.70
2022-08-03T13:22:03.562Z,50.70
2022-08-03T13:24:34.436Z,50.30
2022-08-03T13:27:58.815Z,49.90
2022-08-03T13:29:52.859Z,50.30
2022-08-03T13:32:20.445Z,50.00
2022-08-03T13:34:49.307Z,50.50
2022-08-03T13:37:16.122Z,50.70
2022-08-03T13:39:57.312Z,50.60
2022-08-03T13:42:30.926Z,50.50
2022-08-03T13:44:58.203Z,50.90
2022-08-03T13:47:24.965Z,50.90
2022-08-03T13:49:54.342Z,50.60
2022-08-03T13:52:30.054Z,50.10
2022-08-03T13:54:56.861Z,50.80
2022-08-03T13:58:06.712Z,50.00
2022-08-03T14:00:12.144Z,49.50
2022-08-03T14:02:39.040Z,49.70
2022-08-03T14:05:06.218Z,48.00
2022-08-03T14:07:32.966Z,47.70
2022-08-03T14:10:01.441Z,48.40
2022-08-03T14:12:28.523Z,48.50
2022-08-03T14:14:58.137Z,49.00
2022-08-03T14:17:26.403Z,48.30
2022-08-03T14:20:13.864Z,48.50
2022-08-03T14:22:56.281Z,48.50
2022-08-03T14:25:23.082Z,48.50
2022-08-03T14:27:50.100Z,48.80
2022-08-03T14:30:16.878Z,48.60
2022-08-03T14:32:46.427Z,48.70
2022-08-03T14:35:15.745Z,48.90
2022-08-03T14:37:44.921Z,48.30
2022-08-03T14:40:11.734Z,48.60
2022-08-03T14:42:38.456Z,49.00
2022-08-03T14:45:09.499Z,49.80
2022-08-03T14:50:30.922Z,49.60
2022-08-03T14:50:41.939Z,49.20
2022-08-03T14:53:13.574Z,49.70
2022-08-03T14:55:50.353Z,49.60
2022-08-03T14:58:22.318Z,49.30
2022-08-03T15:00:50.796Z,50.10
2022-08-03T15:03:21.454Z,50.00
2022-08-03T15:05:50.489Z,49.90
2022-08-03T15:08:19.934Z,49.80
2022-08-03T15:10:46.832Z,49.80
2022-08-03T15:13:17.370Z,49.40
2022-08-03T15:15:44.263Z,49.30
2022-08-03T15:18:13.543Z,49.40
2022-08-03T15:20:45.822Z,49.10
2022-08-03T15:23:14.707Z,49.20
2022-08-03T15:26:32.241Z,49.60
2022-08-03T15:28:29.200Z,49.70
2022-08-03T15:30:56.166Z,49.90
2022-08-03T15:33:22.928Z,50.00
2022-08-03T15:35:53.074Z,50.40
2022-08-03T15:38:26.272Z,50.80
2022-08-03T15:40:54.576Z,50.80
2022-08-03T15:43:22.288Z,50.20
2022-08-03T15:46:12.679Z,49.40
2022-08-03T15:48:41.314Z,48.50
2022-08-03T15:51:08.547Z,48.00
2022-08-03T15:53:35.721Z,46.60
2022-08-03T15:56:08.032Z,45.90
2022-08-03T15:58:59.634Z,46.00
2022-08-03T16:01:28.785Z,45.20
2022-08-03T16:03:55.752Z,44.20
2022-08-03T16:06:29.550Z,44.30
2022-08-03T16:09:02.826Z,44.60
2022-08-03T16:11:33.670Z,44.30
2022-08-03T16:14:05.516Z,44.20
2022-08-03T16:16:49.062Z,45.00
2022-08-03T16:19:15.932Z,44.00
2022-08-03T16:21:48.764Z,43.80
2022-08-03T16:24:17.273Z,44.20
2022-08-03T16:26:46.565Z,43.70
2022-08-03T16:29:23.075Z,43.80
2022-08-03T16:31:51.349Z,43.60
2022-08-03T16:34:18.973Z,43.80
2022-08-03T16:36:48.499Z,44.10
2022-08-03T16:39:17.873Z,44.20
2022-08-03T16:41:53.942Z,44.40
2022-08-03T16:44:29.517Z,45.10
2022-08-03T16:46:59.355Z,45.50
2022-08-03T16:49:55.395Z,45.60
2022-08-03T16:52:13.409Z,45.40
2022-08-03T16:54:40.203Z,45.90
2022-08-03T16:57:07.357Z,46.20
2022-08-03T16:59:36.526Z,46.40
2022-08-03T17:02:10.267Z,46.10
2022-08-03T17:04:47.357Z,46.30
2022-08-03T17:07:14.199Z,46.40
2022-08-03T17:09:41.346Z,46.60
2022-08-03T17:12:10.933Z,46.70
2022-08-03T17:14:37.918Z,46.70
2022-08-03T17:17:09.332Z,47.10
2022-08-03T17:19:47.196Z,47.10
2022-08-03T17:22:20.174Z,46.80
2022-08-03T17:24:50.829Z,47.20
2022-08-03T17:28:48.124Z,47.30
2022-08-03T17:30:11.862Z,47.10
2022-08-03T17:32:52.427Z,47.10
2022-08-03T17:35:34.382Z,47.50
2022-08-03T17:38:06.614Z,47.60
2022-08-03T17:40:34.730Z,47.40
2022-08-03T17:44:13.845Z,47.40
2022-08-03T17:45:55.752Z,48.20
2022-08-03T17:48:25.442Z,48.10
2022-08-03T17:51:00.820Z,48.50
2022-08-03T17:53:31.698Z,48.20
2022-08-03T17:56:44.913Z,48.40
2022-08-03T17:59:51.303Z,48.40
2022-08-03T18:02:47.662Z,49.10
2022-08-03T18:05:17.643Z,48.60
2022-08-03T18:07:59.311Z,48.70
2022-08-03T18:10:35.111Z,49.60
2022-08-03T18:13:11.238Z,49.40
2022-08-03T18:15:49.591Z,49.60
2022-08-03T18:18:32.311Z,50.20
2022-08-03T18:21:04.521Z,50.00
2022-08-03T18:23:37.382Z,50.30
2022-08-03T18:26:11.922Z,50.40
2022-08-03T18:28:39.917Z,51.10
2022-08-03T18:31:12.511Z,51.10
2022-08-03T18:34:19.531Z,51.40
2022-08-03T18:36:30.052Z,52.30
2022-08-03T18:39:03.884Z,53.00
2022-08-03T18:41:35.017Z,53.50
2022-08-03T18:44:08.590Z,53.20
2022-08-03T18:47:16.525Z,54.80
2022-08-03T18:50:21.297Z,55.70
2022-08-03T18:52:54.218Z,56.40
2022-08-03T18:55:33.668Z,56.50
2022-08-03T18:58:08.992Z,56.80
2022-08-03T19:00:55.040Z,57.40
2022-08-03T19:03:41.497Z,58.70
2022-08-03T19:06:20.464Z,58.10
2022-08-03T19:09:12.912Z,59.20
2022-08-03T19:12:13.363Z,59.30
2022-08-03T19:14:44.279Z,59.70
2022-08-03T19:17:12.463Z,60.90
2022-08-03T19:19:45.258Z,62.00
2022-08-03T19:22:19.641Z,62.80
2022-08-03T19:24:49.071Z,63.30
2022-08-03T19:27:18.582Z,64.70
2022-08-03T19:29:59.174Z,63.10
2022-08-03T19:32:31.537Z,62.70
2022-08-03T19:35:00.667Z,60.00
2022-08-03T19:37:38.117Z,59.70
2022-08-03T19:40:12.667Z,59.20
2022-08-03T19:42:44.127Z,59.30
2022-08-03T19:45:14.696Z,59.10
2022-08-03T19:48:00.728Z,59.00
2022-08-03T19:50:31.061Z,59.40
2022-08-03T19:53:00.651Z,59.70
2022-08-03T19:55:29.937Z,59.40
2022-08-03T19:58:01.108Z,59.40
2022-08-03T20:00:30.289Z,59.30
2022-08-03T20:03:05.795Z,59.50
2022-08-03T20:05:52.364Z,59.80
2022-08-03T20:08:24.744Z,60.00
2022-08-03T20:10:54.926Z,60.10
2022-08-03T20:13:28.392Z,60.30
2022-08-03T20:15:55.235Z,60.60
2022-08-03T20:18:23.993Z,60.70
2022-08-03T20:20:56.746Z,61.00
2022-08-03T20:23:24.927Z,60.90
2022-08-03T20:25:58.263Z,61.30
2022-08-03T20:28:50.551Z,61.50
2022-08-03T20:31:25.217Z,61.80
2022-08-03T20:34:00.256Z,61.80
2022-08-03T20:36:29.663Z,61.90
2022-08-03T20:38:58.037Z,62.10
2022-08-03T20:41:27.152Z,62.10
2022-08-03T20:43:54.319Z,62.50
2022-08-03T20:46:30.007Z,62.60
2022-08-03T20:49:06.161Z,63.10
2022-08-03T20:51:49.990Z,63.20
2022-08-03T20:54:22.740Z,63.30
2022-08-03T20:57:00.445Z,63.50
2022-08-03T20:59:38.503Z,63.70
2022-08-03T21:05:08.455Z,63.70
2022-08-03T21:08:06.954Z,64.00
2022-08-03T21:10:38.612Z,64.30
2022-08-03T21:13:07.897Z,63.60
2022-08-03T21:16:12.564Z,64.70
2022-08-03T21:18:45.621Z,65.10
2022-08-03T21:21:18.138Z,65.40
2022-08-03T21:23:53.399Z,65.70
2022-08-03T21:26:27.388Z,65.60
2022-08-03T21:28:57.030Z,65.90
2022-08-03T21:31:27.109Z,66.10
2022-08-03T21:33:56.636Z,66.10
2022-08-03T21:36:25.702Z,66.20
2022-08-03T21:38:57.312Z,66.40
2022-08-03T21:41:29.791Z,66.70
2022-08-03T21:43:56.703Z,66.90
2022-08-03T21:46:27.050Z,67.00
2022-08-03T21:50:05.077Z,67.40
2022-08-03T21:51:49.864Z,67.60
2022-08-03T21:54:19.875Z,68.00
2022-08-03T21:56:51.189Z,68.20
2022-08-03T21:59:23.095Z,68.40
2022-08-03T22:01:55.183Z,68.60
2022-08-03T22:04:50.144Z,68.70
2022-08-03T22:07:15.688Z,68.80
2022-08-03T22:09:51.354Z,68.90
2022-08-03T22:12:21.772Z,69.00
2022-08-03T22:14:49.917Z,69.30
2022-08-03T22:17:55.653Z,69.50
2022-08-03T22:20:14.949Z,69.60
2022-08-03T22:22:55.489Z,69.70
2022-08-03T22:25:30.747Z,69.80
2022-08-03T22:28:08.991Z,70.00
2022-08-03T22:30:36.547Z,70.20
2022-08-03T22:33:11.479Z,70.30
2022-08-03T22:35:50.305Z,70.40
2022-08-03T22:38:18.331Z,70.50
2022-08-03T22:40:48.638Z,70.70
2022-08-03T22:43:15.380Z,70.90
2022-08-03T22:46:08.999Z,70.80
2022-08-03T22:48:36.619Z,70.80
2022-08-03T22:51:08.738Z,71.10
2022-08-03T22:53:36.161Z,71.20
2022-08-03T22:56:05.866Z,71.40
2022-08-03T22:58:32.578Z,71.50
2022-08-03T23:01:05.742Z,71.60
2022-08-03T23:04:00.776Z,71.70
2022-08-03T23:06:26.161Z,71.90
2022-08-03T23:08:54.050Z,72.20
2022-08-03T23:11:24.073Z,73.20
2022-08-03T23:13:54.115Z,72.70
2022-08-03T23:16:29.085Z,73.00
2022-08-03T23:18:58.778Z,73.30
2022-08-03T23:21:53.805Z,73.40
2022-08-03T23:24:26.030Z,73.60
2022-08-03T23:26:57.662Z,73.80
2022-08-03T23:29:26.073Z,74.00
2022-08-03T23:31:57.453Z,74.10
2022-08-03T23:34:43.013Z,74.00
2022-08-03T23:37:15.157Z,73.90
2022-08-03T23:39:45.216Z,73.80
2022-08-03T23:42:15.023Z,73.80
2022-08-03T23:44:44.452Z,73.90
2022-08-03T23:47:16.412Z,74.10
2022-08-03T23:49:43.304Z,74.20
2022-08-03T23:52:28.096Z,74.60
2022-08-03T23:55:18.278Z,74.50
2022-08-03T23:58:10.964Z,74.60
